Terminal Aerodrome Forecast
Issued by NWS Charleston, SC

Home | Current Version | Previous Version | Text Only | Print | Product List | Glossary On
Versions: 1 2 3 4 5 6 7 8 9 10 11 12 13 14 15 16
967
FTUS42 KCHS 270522
TAFCHS
TAF
KCHS 270522Z 2706/2806 25006KT P6SM FEW250
     FM271700 23010KT P6SM SCT050
     FM280000 21008KT P6SM SKC=

USA.gov is the U.S. government's official web portal to all federal, state and local government web resources and services.